createdAt,value
2018-08-09T00:02:20.639Z,100888.64
2018-08-09T00:04:47.817Z,100883.95
2018-08-09T00:07:14.996Z,100881.52
2018-08-09T00:09:42.135Z,100886.59
2018-08-09T00:12:09.295Z,100883.14
2018-08-09T00:14:36.389Z,100888.73
2018-08-09T00:17:03.587Z,100887.27
2018-08-09T00:19:30.793Z,100884.19
2018-08-09T00:21:57.899Z,100887.52
2018-08-09T00:24:25.055Z,100884.63
2018-08-09T00:26:52.192Z,100888.72
2018-08-09T00:29:19.378Z,100888.09
2018-08-09T00:31:47.182Z,100881.77
2018-08-09T00:34:14.310Z,100879.70
2018-08-09T00:36:41.407Z,100886.91
2018-08-09T00:39:10.884Z,100890.08
2018-08-09T00:41:38.463Z,100888.39
2018-08-09T00:44:05.629Z,100895.24
2018-08-09T00:46:32.712Z,100892.75
2018-08-09T00:48:59.839Z,100903.57
2018-08-09T00:51:26.928Z,100901.42
2018-08-09T00:53:54.067Z,100904.09
2018-08-09T00:56:21.275Z,100907.44
2018-08-09T00:58:48.351Z,100909.06
2018-08-09T01:01:15.449Z,100906.00
2018-08-09T01:03:42.592Z,100910.70
2018-08-09T01:06:09.778Z,100905.05
2018-08-09T01:08:37.013Z,100910.03
2018-08-09T01:11:04.162Z,100913.70
2018-08-09T01:13:31.242Z,100907.48
2018-08-09T01:15:58.343Z,100911.06
2018-08-09T01:18:25.536Z,100915.02
2018-08-09T01:20:52.692Z,100909.70
2018-08-09T01:23:19.771Z,100919.07
2018-08-09T01:25:46.911Z,100919.48
2018-08-09T01:28:14.016Z,100927.33
2018-08-09T01:30:41.147Z,100934.14
2018-08-09T01:33:08.368Z,100935.19
2018-08-09T01:35:35.443Z,100943.41
2018-08-09T01:38:02.524Z,100944.48
2018-08-09T01:40:29.662Z,100949.95
2018-08-09T01:43:08.299Z,100958.55
2018-08-09T01:45:35.822Z,100957.00
2018-08-09T01:48:02.980Z,100963.30
2018-08-09T01:50:30.051Z,100962.14
2018-08-09T01:52:57.526Z,100964.64
2018-08-09T01:55:24.686Z,100963.22
2018-08-09T01:57:51.845Z,100961.88
2018-08-09T02:00:18.989Z,100962.72
2018-08-09T02:02:46.077Z,100962.47
2018-08-09T02:05:13.171Z,100972.59
2018-08-09T02:07:42.991Z,100969.20
2018-08-09T02:10:10.182Z,100974.09
2018-08-09T02:12:37.263Z,100969.31
2018-08-09T02:15:04.448Z,100966.41
2018-08-09T02:17:31.570Z,100965.19
2018-08-09T02:19:58.707Z,100973.51
2018-08-09T02:22:26.237Z,100981.51
2018-08-09T02:24:53.335Z,100976.77
2018-08-09T02:27:20.414Z,100968.53
2018-08-09T02:29:47.562Z,100984.28
2018-08-09T02:32:14.707Z,100982.27
2018-08-09T02:34:41.891Z,100986.36
2018-08-09T02:37:09.067Z,100986.23
2018-08-09T02:39:36.172Z,100988.72
2018-08-09T02:42:03.270Z,100995.85
2018-08-09T02:44:30.464Z,100993.60
2018-08-09T02:46:57.618Z,100995.80
2018-08-09T02:49:24.754Z,100989.15
2018-08-09T02:51:51.895Z,100995.04
2018-08-09T02:54:18.994Z,100997.05
2018-08-09T02:56:46.147Z,100997.19
2018-08-09T02:59:13.371Z,100994.71
2018-08-09T03:01:40.451Z,100988.92
2018-08-09T03:04:07.549Z,100999.20
2018-08-09T03:06:34.760Z,100992.98
2018-08-09T03:09:01.966Z,100989.34
2018-08-09T03:11:29.111Z,100998.92
2018-08-09T03:13:56.242Z,100992.55
2018-08-09T03:16:23.357Z,101002.98
2018-08-09T03:18:50.426Z,101007.68
2018-08-09T03:21:17.606Z,101006.59
2018-08-09T03:23:44.806Z,101004.77
2018-08-09T03:26:11.888Z,101010.36
2018-08-09T03:28:39.422Z,101012.32
2018-08-09T03:31:06.542Z,101013.56
2018-08-09T03:33:33.686Z,101018.45
2018-08-09T03:36:01.007Z,101032.13
2018-08-09T03:38:28.088Z,101025.22
2018-08-09T03:40:55.182Z,101023.02
2018-08-09T03:43:22.288Z,101025.76
2018-08-09T03:45:49.426Z,101032.08
2018-08-09T03:48:16.575Z,101025.70
2018-08-09T03:50:43.800Z,101027.42
2018-08-09T03:53:10.912Z,101035.64
2018-08-09T03:55:37.983Z,101032.55
2018-08-09T03:58:05.480Z,101040.49
2018-08-09T04:00:33.058Z,101043.27
2018-08-09T04:03:01.256Z,101047.70
2018-08-09T04:05:28.380Z,101047.70
2018-08-09T04:07:55.474Z,101051.34
2018-08-09T04:10:22.627Z,101055.73
2018-08-09T04:12:49.832Z,101053.73
2018-08-09T04:15:16.943Z,101050.86
2018-08-09T04:17:44.019Z,101054.02
2018-08-09T04:20:11.163Z,101057.23
2018-08-09T04:22:38.300Z,101051.63
2018-08-09T04:25:05.476Z,101048.18
2018-08-09T04:27:32.609Z,101040.97
2018-08-09T04:29:59.716Z,101050.83
2018-08-09T04:32:26.831Z,101053.61
2018-08-09T04:34:54.008Z,101053.51
2018-08-09T04:37:21.175Z,101059.09
2018-08-09T04:39:48.264Z,101060.91
2018-08-09T04:42:15.408Z,101063.75
2018-08-09T04:44:42.509Z,101063.02
2018-08-09T04:47:09.641Z,101061.55
2018-08-09T04:49:36.834Z,101056.45
2018-08-09T04:52:03.986Z,101057.50
2018-08-09T04:54:31.093Z,101063.91
2018-08-09T04:56:58.231Z,101054.25
2018-08-09T04:59:25.414Z,101048.66
2018-08-09T05:01:52.630Z,101052.92
2018-08-09T05:04:19.770Z,101051.00
2018-08-09T05:06:46.960Z,101059.81
2018-08-09T05:09:14.056Z,101063.03
2018-08-09T05:11:42.404Z,101059.39
2018-08-09T05:14:09.735Z,101059.63
2018-08-09T05:16:36.987Z,101065.27
2018-08-09T05:19:04.370Z,101062.69
2018-08-09T05:21:31.788Z,101065.33
2018-08-09T05:23:58.947Z,101066.05
2018-08-09T05:26:26.437Z,101058.28
2018-08-09T05:28:53.591Z,101056.23
2018-08-09T05:31:20.688Z,101055.19
2018-08-09T05:33:48.335Z,101063.37
2018-08-09T05:36:15.577Z,101057.13
2018-08-09T05:38:42.782Z,101060.47
2018-08-09T05:41:09.927Z,101060.63
2018-08-09T05:43:37.052Z,101056.14
2018-08-09T05:46:04.286Z,101058.69
2018-08-09T05:48:31.852Z,101054.08
2018-08-09T05:50:59.055Z,101054.66
2018-08-09T05:53:26.499Z,101060.83
2018-08-09T05:55:53.623Z,101057.08
2018-08-09T05:58:20.718Z,101062.72
2018-08-09T06:00:47.903Z,101067.44
2018-08-09T06:03:15.701Z,101067.28
2018-08-09T06:05:42.928Z,101063.39
2018-08-09T06:08:09.998Z,101068.86
2018-08-09T06:10:37.148Z,101074.53
2018-08-09T06:13:04.351Z,101065.42
2018-08-09T06:15:31.536Z,101064.47
2018-08-09T06:17:58.971Z,101065.24
2018-08-09T06:20:26.076Z,101065.13
2018-08-09T06:22:53.175Z,101067.03
2018-08-09T06:25:20.346Z,101066.70
2018-08-09T06:27:47.545Z,101071.54
2018-08-09T06:30:14.667Z,101067.31
2018-08-09T06:32:41.796Z,101068.82
2018-08-09T06:35:09.858Z,101071.89
2018-08-09T06:37:37.444Z,101071.45
2018-08-09T06:40:07.976Z,101075.00
2018-08-09T06:42:35.080Z,101068.75
2018-08-09T06:45:02.208Z,101073.06
2018-08-09T06:47:29.332Z,101077.58
2018-08-09T06:49:56.592Z,101072.88
2018-08-09T06:52:23.784Z,101072.53
2018-08-09T06:54:50.927Z,101080.03
2018-08-09T06:59:51.932Z,101092.39
2018-08-09T07:02:19.104Z,101096.19
2018-08-09T07:04:46.261Z,101092.29
2018-08-09T07:07:13.430Z,101096.32
2018-08-09T07:09:40.531Z,101092.05
2018-08-09T07:12:07.640Z,101092.80
2018-08-09T07:14:35.220Z,101097.06
2018-08-09T07:17:02.518Z,101096.31
2018-08-09T07:19:29.601Z,101101.09
2018-08-09T07:21:56.734Z,101103.45
2018-08-09T07:24:23.844Z,101102.91
2018-08-09T07:26:50.978Z,101094.64
2018-08-09T07:29:18.175Z,101096.36
2018-08-09T07:31:45.794Z,101090.08
2018-08-09T07:34:12.907Z,101092.44
2018-08-09T07:36:40.084Z,101093.38
2018-08-09T07:39:08.292Z,101097.23
2018-08-09T07:41:35.963Z,101099.40
2018-08-09T07:44:03.510Z,101082.95
2018-08-09T07:46:30.621Z,101082.53
2018-08-09T07:48:57.739Z,101091.11
2018-08-09T07:51:24.995Z,101085.52
2018-08-09T07:53:52.180Z,101092.77
2018-08-09T07:56:19.276Z,101092.75
2018-08-09T07:58:46.420Z,101097.23
2018-08-09T08:01:13.494Z,101093.15
2018-08-09T08:03:40.665Z,101093.80
2018-08-09T08:06:08.419Z,101099.21
2018-08-09T08:08:35.553Z,101095.45
2018-08-09T08:11:03.528Z,101097.55
2018-08-09T08:13:31.407Z,101090.23
2018-08-09T08:15:58.554Z,101086.88
2018-08-09T08:18:25.714Z,101093.06
2018-08-09T08:20:52.863Z,101091.23
2018-08-09T08:23:19.961Z,101080.55
2018-08-09T08:25:47.068Z,101081.55
2018-08-09T08:28:14.275Z,101087.06
2018-08-09T08:30:41.465Z,101084.37
2018-08-09T08:33:08.565Z,101083.43
2018-08-09T08:35:35.725Z,101077.53
2018-08-09T08:38:02.869Z,101081.77
2018-08-09T08:40:30.031Z,101081.50
2018-08-09T08:42:57.236Z,101076.52
2018-08-09T08:45:24.368Z,101082.77
2018-08-09T08:47:51.463Z,101084.60
2018-08-09T08:50:18.574Z,101077.32
2018-08-09T08:52:45.721Z,101078.11
2018-08-09T08:55:13.092Z,101070.48
2018-08-09T08:57:40.210Z,101070.41
2018-08-09T09:00:09.082Z,101072.75
2018-08-09T09:02:36.481Z,101064.66
2018-08-09T09:05:05.453Z,101052.59
2018-08-09T09:07:32.578Z,101057.75
2018-08-09T09:09:59.647Z,101057.88
2018-08-09T09:12:26.825Z,101054.42
2018-08-09T09:14:54.764Z,101048.19
2018-08-09T09:17:21.929Z,101044.86
2018-08-09T09:19:49.176Z,101041.16
2018-08-09T09:22:16.286Z,101049.37
2018-08-09T09:24:43.363Z,101049.84
2018-08-09T09:27:10.498Z,101042.61
2018-08-09T09:29:37.666Z,101041.98
2018-08-09T09:32:04.933Z,101041.98
2018-08-09T09:34:32.047Z,101036.52
2018-08-09T09:36:59.155Z,101032.19
2018-08-09T09:39:26.287Z,101031.84
2018-08-09T09:41:53.466Z,101027.45
2018-08-09T09:44:20.647Z,101026.42
2018-08-09T09:46:47.743Z,101024.64
2018-08-09T09:49:14.886Z,101017.28
2018-08-09T09:51:41.985Z,101018.30
2018-08-09T09:54:09.136Z,101018.58
2018-08-09T09:56:36.750Z,101015.16
2018-08-09T09:59:03.855Z,101004.86
2018-08-09T10:01:32.989Z,101000.45
2018-08-09T10:04:00.120Z,100993.60
2018-08-09T10:06:27.300Z,100994.02
2018-08-09T10:08:54.456Z,100990.05
2018-08-09T10:11:21.586Z,100988.09
2018-08-09T10:13:48.660Z,100987.13
2018-08-09T10:16:15.776Z,100985.50
2018-08-09T10:18:43.106Z,100989.63
2018-08-09T10:21:10.264Z,100983.75
2018-08-09T10:23:37.360Z,100973.42
2018-08-09T10:26:04.491Z,100975.17
2018-08-09T10:28:31.613Z,100968.52
2018-08-09T10:30:58.816Z,100963.61
2018-08-09T10:33:26.052Z,100968.50
2018-08-09T10:35:53.152Z,100963.41
2018-08-09T10:38:20.358Z,100958.73
2018-08-09T10:40:47.524Z,100949.89
2018-08-09T10:43:14.692Z,100949.11
2018-08-09T10:45:41.852Z,100942.69
2018-08-09T10:48:08.975Z,100943.77
2018-08-09T10:50:36.083Z,100941.30
2018-08-09T10:53:03.193Z,100935.98
2018-08-09T10:55:30.398Z,100931.70
2018-08-09T10:57:57.575Z,100932.61
2018-08-09T11:00:24.696Z,100927.63
2018-08-09T11:02:51.815Z,100914.37
2018-08-09T11:05:18.968Z,100917.91
2018-08-09T11:07:46.139Z,100914.26
2018-08-09T11:10:13.343Z,100911.70
2018-08-09T11:12:40.427Z,100908.67
2018-08-09T11:15:09.005Z,100906.30
2018-08-09T11:17:36.134Z,100897.95
2018-08-09T11:20:04.301Z,100895.15
2018-08-09T11:22:31.463Z,100895.38
2018-08-09T11:24:58.631Z,100889.73
2018-08-09T11:27:25.691Z,100886.71
2018-08-09T11:29:52.785Z,100881.45
2018-08-09T11:32:19.969Z,100881.23
2018-08-09T11:34:47.118Z,100868.15
2018-08-09T11:37:14.208Z,100862.23
2018-08-09T11:39:41.389Z,100865.78
2018-08-09T11:42:08.495Z,100862.50
2018-08-09T11:44:35.631Z,100850.98
2018-08-09T11:47:03.070Z,100848.50
2018-08-09T11:49:31.375Z,100845.58
2018-08-09T11:51:58.474Z,100843.92
2018-08-09T11:54:25.652Z,100840.59
2018-08-09T11:56:52.846Z,100842.64
2018-08-09T11:59:20.024Z,100846.39
2018-08-09T12:01:47.246Z,100834.63
2018-08-09T12:04:14.348Z,100830.48
2018-08-09T12:06:41.444Z,100827.27
2018-08-09T12:09:09.768Z,100823.50
2018-08-09T12:11:37.557Z,100827.34
2018-08-09T12:14:05.341Z,100828.58
2018-08-09T12:16:32.493Z,100816.77
2018-08-09T12:18:59.615Z,100823.57
2018-08-09T12:21:26.811Z,100819.91
2018-08-09T12:23:54.408Z,100813.78
2018-08-09T12:26:21.520Z,100809.55
2018-08-09T12:28:48.648Z,100809.25
2018-08-09T12:31:15.832Z,100797.69
2018-08-09T12:33:43.027Z,100798.84
2018-08-09T12:36:10.250Z,100792.84
2018-08-09T12:38:37.366Z,100791.05
2018-08-09T12:41:04.551Z,100783.73
2018-08-09T12:43:31.667Z,100786.34
2018-08-09T12:45:58.891Z,100782.33
2018-08-09T12:48:26.037Z,100783.98
2018-08-09T12:50:53.146Z,100780.43
2018-08-09T12:53:20.392Z,100772.19
2018-08-09T12:55:47.531Z,100770.28
2018-08-09T12:58:14.730Z,100765.72
2018-08-09T13:00:41.944Z,100755.34
2018-08-09T13:03:09.103Z,100759.07
2018-08-09T13:05:36.300Z,100746.70
2018-08-09T13:08:03.575Z,100743.67
2018-08-09T13:10:30.734Z,100733.19
2018-08-09T13:12:57.910Z,100729.31
2018-08-09T13:15:25.159Z,100730.27
2018-08-09T13:17:52.256Z,100718.57
2018-08-09T13:20:20.857Z,100726.45
2018-08-09T13:22:49.390Z,100719.23
2018-08-09T13:25:16.568Z,100723.20
2018-08-09T13:27:43.741Z,100714.95
2018-08-09T13:30:12.430Z,100706.64
2018-08-09T13:32:39.856Z,100699.82
2018-08-09T13:35:07.694Z,100687.55
2018-08-09T13:37:34.928Z,100690.07
2018-08-09T13:40:02.027Z,100692.14
2018-08-09T13:42:29.168Z,100695.75
2018-08-09T13:44:56.341Z,100682.06
2018-08-09T13:47:23.546Z,100671.82
2018-08-09T13:49:50.792Z,100678.28
2018-08-09T13:52:17.958Z,100672.94
2018-08-09T13:54:45.079Z,100668.55
2018-08-09T13:57:13.061Z,100665.16
2018-08-09T13:59:40.618Z,100665.34
2018-08-09T14:02:07.860Z,100648.57
2018-08-09T14:04:34.962Z,100649.38
2018-08-09T14:07:02.107Z,100641.72
2018-08-09T14:09:29.238Z,100642.03
2018-08-09T14:11:56.481Z,100629.53
2018-08-09T14:14:23.954Z,100620.11
2018-08-09T14:16:51.068Z,100613.92
2018-08-09T14:19:18.245Z,100613.14
2018-08-09T14:21:45.369Z,100618.91
2018-08-09T14:24:12.510Z,100616.21
2018-08-09T14:26:39.769Z,100616.50
2018-08-09T14:29:07.588Z,100619.11
2018-08-09T14:31:35.216Z,100606.52
2018-08-09T14:34:02.607Z,100599.69
2018-08-09T14:36:29.828Z,100609.58
2018-08-09T14:38:57.056Z,100604.45
2018-08-09T14:41:24.168Z,100602.95
2018-08-09T14:43:52.211Z,100596.44
2018-08-09T14:46:19.340Z,100601.88
2018-08-09T14:48:46.530Z,100596.83
2018-08-09T14:51:13.793Z,100586.59
2018-08-09T14:53:40.959Z,100584.63
2018-08-09T14:56:08.102Z,100573.31
2018-08-09T14:58:35.293Z,100572.55
2018-08-09T15:01:02.508Z,100571.22
2018-08-09T15:03:29.820Z,100569.86
2018-08-09T15:05:57.320Z,100566.42
2018-08-09T15:08:24.456Z,100572.28
2018-08-09T15:10:51.578Z,100557.77
2018-08-09T15:13:18.796Z,100567.13
2018-08-09T15:15:46.272Z,100555.89
2018-08-09T15:18:13.400Z,100553.09
2018-08-09T15:20:40.573Z,100552.25
2018-08-09T15:23:08.648Z,100546.91
2018-08-09T15:25:35.910Z,100546.06
2018-08-09T15:28:03.423Z,100532.41
2018-08-09T15:30:30.708Z,100531.37
2018-08-09T15:32:57.869Z,100530.79
2018-08-09T15:35:25.107Z,100517.75
2018-08-09T15:37:52.350Z,100512.70
2018-08-09T15:40:19.532Z,100515.82
2018-08-09T15:42:46.720Z,100511.55
2018-08-09T15:45:14.883Z,100511.69
2018-08-09T15:47:42.302Z,100508.95
2018-08-09T15:50:11.437Z,100510.45
2018-08-09T15:52:38.609Z,100504.92
2018-08-09T15:55:05.856Z,100503.48
2018-08-09T15:57:33.055Z,100501.98
2018-08-09T16:00:00.236Z,100500.31
2018-08-09T16:02:27.472Z,100494.53
2018-08-09T16:04:54.693Z,100497.50
2018-08-09T16:07:21.835Z,100490.05
2018-08-09T16:09:48.922Z,100491.06
2018-08-09T16:12:16.092Z,100487.94
2018-08-09T16:14:43.268Z,100478.39
2018-08-09T16:17:10.502Z,100479.94
2018-08-09T16:19:37.717Z,100476.08
2018-08-09T16:22:04.835Z,100472.52
2018-08-09T16:24:31.990Z,100478.42
2018-08-09T16:26:59.216Z,100473.75
2018-08-09T16:29:26.725Z,100462.17
2018-08-09T16:31:53.873Z,100467.03
2018-08-09T16:34:21.061Z,100454.69
2018-08-09T16:36:48.209Z,100448.38
2018-08-09T16:39:15.391Z,100431.50
2018-08-09T16:41:42.667Z,100431.13
2018-08-09T16:44:10.555Z,100426.70
2018-08-09T16:46:37.699Z,100422.09
2018-08-09T16:49:05.039Z,100427.98
2018-08-09T16:51:32.224Z,100427.28
2018-08-09T16:53:59.432Z,100421.58
2018-08-09T16:56:26.615Z,100417.20
2018-08-09T16:58:53.721Z,100415.06
2018-08-09T17:01:20.842Z,100410.56
2018-08-09T17:03:48.068Z,100410.86
2018-08-09T17:06:15.279Z,100403.61
2018-08-09T17:08:42.360Z,100404.41
2018-08-09T17:11:09.507Z,100404.78
2018-08-09T17:13:36.647Z,100396.70
2018-08-09T17:16:03.861Z,100397.37
2018-08-09T17:18:31.341Z,100388.89
2018-08-09T17:20:58.549Z,100385.01
2018-08-09T17:23:25.676Z,100381.69
2018-08-09T17:25:52.843Z,100375.91
2018-08-09T17:28:20.033Z,100384.16
2018-08-09T17:30:47.257Z,100381.86
2018-08-09T17:33:14.424Z,100370.78
2018-08-09T17:35:41.599Z,100362.04
2018-08-09T17:38:08.696Z,100364.52
2018-08-09T17:40:36.209Z,100359.31
2018-08-09T17:43:04.019Z,100362.39
2018-08-09T17:45:32.631Z,100353.09
2018-08-09T17:48:00.136Z,100359.90
2018-08-09T17:50:27.291Z,100352.42
2018-08-09T17:52:55.865Z,100354.25
2018-08-09T17:55:23.092Z,100350.78
2018-08-09T17:57:50.213Z,100343.02
2018-08-09T18:00:21.656Z,100343.46
2018-08-09T18:02:49.056Z,100347.48
2018-08-09T18:05:16.255Z,100349.18
2018-08-09T18:07:43.607Z,100342.33
2018-08-09T18:10:14.319Z,100346.14
2018-08-09T18:12:41.553Z,100346.17
2018-08-09T18:15:09.777Z,100337.58
2018-08-09T18:17:37.054Z,100336.63
2018-08-09T18:20:10.593Z,100337.20
2018-08-09T18:22:37.764Z,100341.00
2018-08-09T18:25:07.023Z,100341.43
2018-08-09T18:27:34.204Z,100334.44
2018-08-09T18:30:01.483Z,100338.22
2018-08-09T19:02:57.204Z,100347.45
2018-08-09T19:09:12.011Z,100339.09
2018-08-09T19:11:39.225Z,100342.01
2018-08-09T19:14:06.530Z,100343.52
2018-08-09T19:16:33.676Z,100345.56
2018-08-09T19:19:00.857Z,100339.27
2018-08-09T19:21:28.065Z,100339.26
2018-08-09T19:23:56.430Z,100338.93
2018-08-09T19:26:23.785Z,100333.00
2018-08-09T19:28:51.048Z,100337.89
2018-08-09T19:31:18.302Z,100345.28
2018-08-09T19:33:45.492Z,100338.65
2018-08-09T19:36:12.711Z,100343.86
2018-08-09T19:38:40.150Z,100344.16
2018-08-09T19:41:07.477Z,100354.10
2018-08-09T19:43:34.591Z,100354.19
2018-08-09T19:46:01.879Z,100365.37
2018-08-09T19:48:29.178Z,100413.61
2018-08-09T19:50:56.484Z,100525.56
2018-08-09T19:53:23.998Z,100540.97
2018-08-09T19:55:51.289Z,100558.48
2018-08-09T19:58:18.521Z,100565.64
2018-08-09T20:00:45.732Z,100562.37
2018-08-09T20:03:13.102Z,100566.72
2018-08-09T20:05:40.214Z,100581.91
2018-08-09T20:08:07.372Z,100589.37
2018-08-09T20:10:34.536Z,100567.72
2018-08-09T20:13:01.796Z,100565.08
2018-08-09T20:15:30.276Z,100561.83
2018-08-09T20:17:57.458Z,100569.45
2018-08-09T20:20:25.646Z,100568.14
2018-08-09T20:22:53.055Z,100575.64
2018-08-09T20:25:20.247Z,100588.23
2018-08-09T20:27:47.584Z,100580.83
2018-08-09T20:30:15.720Z,100593.70
2018-08-09T20:32:43.363Z,100615.20
2018-08-09T20:35:13.540Z,100630.91
2018-08-09T20:37:41.722Z,100645.53
2018-08-09T20:40:09.842Z,100669.55
2018-08-09T20:42:37.292Z,100693.00
2018-08-09T20:45:05.881Z,100733.70
2018-08-09T20:47:33.148Z,100672.45
2018-08-09T20:50:00.314Z,100630.89
2018-08-09T20:52:27.676Z,100574.77
2018-08-09T20:54:54.869Z,100539.63
2018-08-09T20:57:22.071Z,100545.44
2018-08-09T20:59:49.262Z,100548.23
2018-08-09T21:02:16.416Z,100561.83
2018-08-09T21:04:43.748Z,100577.13
2018-08-09T21:07:10.905Z,100607.94
2018-08-09T21:09:38.123Z,100624.14
2018-08-09T21:12:05.325Z,100617.80
2018-08-09T21:14:32.693Z,100599.04
2018-08-09T21:17:00.051Z,100577.60
2018-08-09T21:19:27.250Z,100567.39
2018-08-09T21:21:54.826Z,100547.23
2018-08-09T21:24:21.966Z,100539.69
2018-08-09T21:26:49.135Z,100538.95
2018-08-09T21:29:16.515Z,100513.20
2018-08-09T21:31:50.173Z,100510.34
2018-08-09T21:34:17.372Z,100515.51
2018-08-09T21:36:44.483Z,100509.05
2018-08-09T21:39:13.158Z,100511.58
2018-08-09T21:41:40.839Z,100517.44
2018-08-09T21:44:07.980Z,100527.88
2018-08-09T21:46:35.128Z,100548.34
2018-08-09T21:49:02.303Z,100557.97
2018-08-09T21:51:29.436Z,100571.23
2018-08-09T21:53:56.733Z,100574.44
2018-08-09T21:56:23.928Z,100575.03
2018-08-09T21:58:51.054Z,100586.26
2018-08-09T22:01:18.187Z,100608.38
2018-08-09T22:03:45.343Z,100612.98
2018-08-09T22:06:19.167Z,100619.89
2018-08-09T22:08:52.084Z,100621.58
2018-08-09T22:11:25.007Z,100632.02
2018-08-09T22:13:57.796Z,100638.47
2018-08-09T22:16:31.676Z,100645.51
2018-08-09T22:19:04.551Z,100647.02
2018-08-09T22:21:37.396Z,100665.14
2018-08-09T22:24:04.615Z,100672.80
2018-08-09T22:26:31.943Z,100683.29
2018-08-09T22:28:59.132Z,100687.64
2018-08-09T22:31:26.342Z,100696.47
2018-08-09T22:33:53.756Z,100692.72
2018-08-09T22:36:20.955Z,100704.00
2018-08-09T22:38:48.254Z,100707.36
2018-08-09T22:41:15.369Z,100710.27
2018-08-09T22:43:42.518Z,100721.83
2018-08-09T22:46:09.725Z,100727.00
2018-08-09T22:48:36.881Z,100736.32
2018-08-09T22:51:04.380Z,100736.56
2018-08-09T22:53:31.568Z,100732.55
2018-08-09T22:55:58.729Z,100738.89
2018-08-09T22:58:25.877Z,100741.86
2018-08-09T23:00:53.041Z,100747.31
2018-08-09T23:03:20.324Z,100739.85
2018-08-09T23:05:47.515Z,100739.38
2018-08-09T23:08:15.474Z,100741.97
2018-08-09T23:10:43.370Z,100746.37
2018-08-09T23:13:11.371Z,100747.04
2018-08-09T23:15:57.511Z,100752.67
2018-08-09T23:18:24.662Z,100750.61
2018-08-09T23:20:51.801Z,100751.41
2018-08-09T23:23:19.043Z,100745.83
2018-08-09T23:25:46.289Z,100750.61
2018-08-09T23:28:13.509Z,100748.35
2018-08-09T23:30:40.739Z,100748.55
2018-08-09T23:33:07.887Z,100754.85
2018-08-09T23:35:35.057Z,100754.38
2018-08-09T23:38:02.379Z,100765.02
2018-08-09T23:40:29.626Z,100772.94
2018-08-09T23:42:56.809Z,100768.45
2018-08-09T23:45:24.971Z,100761.57
2018-08-09T23:47:52.105Z,100757.97
2018-08-09T23:50:19.320Z,100759.50
2018-08-09T23:52:46.580Z,100770.09
2018-08-09T23:55:16.065Z,100768.56
2018-08-09T23:57:43.371Z,100777.28
